createdAt,value
2022-10-03T00:00:16.740Z,14.75
2022-10-03T00:02:52.457Z,13.07
2022-10-03T00:05:42.293Z,10.70
2022-10-03T00:08:33.545Z,9.68
2022-10-03T00:11:23.949Z,12.05
2022-10-03T00:13:59.654Z,11.45
2022-10-03T00:17:03.258Z,7.25
2022-10-03T00:19:47.962Z,6.97
2022-10-03T00:22:27.720Z,9.23
2022-10-03T00:25:06.767Z,11.23
2022-10-03T00:28:02.656Z,12.00
2022-10-03T00:30:33.484Z,9.02
2022-10-03T00:33:04.854Z,6.05
2022-10-03T00:35:37.481Z,6.60
2022-10-03T00:38:07.181Z,10.88
2022-10-03T00:40:55.881Z,11.90
2022-10-03T00:43:36.094Z,11.63
2022-10-03T00:46:38.199Z,12.18
2022-10-03T00:49:29.133Z,9.70
2022-10-03T00:52:01.247Z,11.57
2022-10-03T00:54:46.613Z,8.20
2022-10-03T00:57:52.247Z,9.38
2022-10-03T01:00:25.137Z,8.50
2022-10-03T01:02:52.279Z,9.68
2022-10-03T01:05:31.767Z,9.10
2022-10-03T01:08:22.841Z,8.77
2022-10-03T01:11:23.271Z,7.63
2022-10-03T01:14:08.893Z,8.15
2022-10-03T01:17:02.942Z,8.65
2022-10-03T01:19:53.125Z,7.97
2022-10-03T01:22:19.884Z,8.30
2022-10-03T01:24:51.016Z,7.93
2022-10-03T01:27:56.979Z,7.68
2022-10-03T01:30:23.874Z,7.25
2022-10-03T01:33:12.954Z,6.07
2022-10-03T01:36:00.175Z,5.90
2022-10-03T01:38:48.176Z,6.68
2022-10-03T01:41:35.988Z,7.22
2022-10-03T01:44:16.684Z,6.80
2022-10-03T01:46:54.841Z,6.78
2022-10-03T01:49:48.090Z,7.93
2022-10-03T01:52:22.822Z,7.15
2022-10-03T01:55:31.272Z,7.70
2022-10-03T01:58:14.602Z,5.95
2022-10-03T02:03:21.645Z,5.28
2022-10-03T02:06:03.003Z,5.40
2022-10-03T02:08:54.160Z,5.68
2022-10-03T02:11:30.357Z,6.85
2022-10-03T02:14:36.269Z,5.75
2022-10-03T02:17:33.953Z,5.03
2022-10-03T02:20:08.000Z,6.03
2022-10-03T02:22:42.695Z,5.65
2022-10-03T02:25:36.692Z,5.57
2022-10-03T02:28:09.713Z,5.75
2022-10-03T02:33:26.939Z,5.05
2022-10-03T02:36:15.128Z,5.20
2022-10-03T02:38:54.063Z,5.43
2022-10-03T02:41:49.203Z,5.45
2022-10-03T02:45:06.876Z,4.72
2022-10-03T02:47:48.594Z,5.63
2022-10-03T02:50:50.569Z,5.32
2022-10-03T02:53:38.575Z,5.00
2022-10-03T02:56:14.044Z,5.00
2022-10-03T02:58:56.987Z,4.57
2022-10-03T03:01:35.470Z,4.47
2022-10-03T03:04:39.399Z,5.15
2022-10-03T03:07:38.392Z,5.15
2022-10-03T03:10:22.734Z,5.32
2022-10-03T03:13:18.467Z,5.38
2022-10-03T03:16:18.934Z,5.82
2022-10-03T03:19:23.057Z,6.85
2022-10-03T03:21:49.976Z,6.07
2022-10-03T03:24:31.605Z,5.30
2022-10-03T03:27:23.043Z,4.90
2022-10-03T03:30:14.971Z,5.15
2022-10-03T03:32:57.964Z,5.30
2022-10-03T03:35:52.487Z,6.00
2022-10-03T03:38:26.129Z,6.03
2022-10-03T03:41:17.115Z,5.57
2022-10-03T03:44:06.973Z,5.15
2022-10-03T03:46:45.977Z,5.82
2022-10-03T03:49:54.651Z,6.25
2022-10-03T03:53:01.125Z,5.93
2022-10-03T03:55:49.161Z,6.65
2022-10-03T03:58:37.543Z,6.57
2022-10-03T04:01:44.317Z,5.90
2022-10-03T04:04:36.844Z,6.10
2022-10-03T04:07:31.947Z,6.72
2022-10-03T04:09:59.805Z,6.03
2022-10-03T04:12:27.402Z,7.13
2022-10-03T04:15:07.417Z,7.05
2022-10-03T04:18:05.672Z,7.20
2022-10-03T04:21:02.328Z,7.38
2022-10-03T04:24:06.906Z,8.45
2022-10-03T04:26:55.227Z,6.80
2022-10-03T04:29:26.488Z,7.82
2022-10-03T04:31:59.358Z,8.73
2022-10-03T04:34:41.976Z,7.63
2022-10-03T04:37:42.162Z,7.13
2022-10-03T04:40:25.938Z,7.63
2022-10-03T04:43:09.656Z,7.57
2022-10-03T04:45:54.693Z,7.75
2022-10-03T04:48:38.977Z,7.40
2022-10-03T04:51:16.367Z,6.55
2022-10-03T04:53:53.884Z,7.95
2022-10-03T04:56:26.724Z,7.13
2022-10-03T04:58:58.189Z,6.90
2022-10-03T05:01:39.000Z,7.88
2022-10-03T05:04:24.179Z,8.55
2022-10-03T05:07:07.385Z,8.38
2022-10-03T05:12:42.172Z,7.22
2022-10-03T05:15:18.533Z,8.27
2022-10-03T05:18:03.567Z,8.10
2022-10-03T05:20:49.298Z,12.45
2022-10-03T05:23:25.711Z,8.20
2022-10-03T05:26:32.409Z,8.50
2022-10-03T05:29:00.019Z,9.75
2022-10-03T05:32:04.776Z,10.68
2022-10-03T05:35:08.999Z,10.25
2022-10-03T05:37:53.576Z,9.30
2022-10-03T05:40:28.228Z,9.50
2022-10-03T05:43:11.395Z,8.70
2022-10-03T05:45:47.138Z,8.32
2022-10-03T05:48:58.781Z,8.18
2022-10-03T05:51:46.832Z,8.23
2022-10-03T05:54:25.930Z,9.77
2022-10-03T05:57:21.687Z,8.18
2022-10-03T05:59:59.449Z,8.07
2022-10-03T06:03:02.904Z,7.72
2022-10-03T06:05:32.617Z,8.40
2022-10-03T06:08:19.934Z,8.68
2022-10-03T06:10:56.136Z,8.15
2022-10-03T06:14:08.113Z,9.88
2022-10-03T06:16:56.736Z,8.07
2022-10-03T06:19:38.403Z,8.93
2022-10-03T06:22:41.327Z,8.90
2022-10-03T06:25:50.454Z,8.57
2022-10-03T06:28:28.862Z,9.02
2022-10-03T06:31:21.120Z,8.75
2022-10-03T06:34:06.480Z,9.50
2022-10-03T06:36:59.980Z,9.05
2022-10-03T06:42:25.455Z,9.18
2022-10-03T06:45:31.089Z,9.27
2022-10-03T06:48:21.305Z,9.23
2022-10-03T06:51:12.328Z,9.13
2022-10-03T06:54:16.483Z,10.75
2022-10-03T06:57:05.901Z,7.78
2022-10-03T06:59:36.809Z,8.07
2022-10-03T07:02:26.135Z,8.82
2022-10-03T07:05:26.154Z,7.75
2022-10-03T07:08:06.126Z,8.63
2022-10-03T07:10:47.934Z,11.07
2022-10-03T07:13:15.856Z,10.38
2022-10-03T07:16:27.077Z,10.48
2022-10-03T07:19:03.532Z,9.60
2022-10-03T07:21:31.231Z,9.13
2022-10-03T07:24:03.453Z,9.27
2022-10-03T07:27:04.586Z,9.95
2022-10-03T07:30:06.891Z,9.45
2022-10-03T07:33:07.658Z,8.68
2022-10-03T07:35:59.468Z,9.50
2022-10-03T07:39:01.493Z,8.93
2022-10-03T07:41:32.578Z,8.95
2022-10-03T07:44:29.702Z,8.15
2022-10-03T07:47:33.716Z,7.72
2022-10-03T07:50:27.849Z,9.93
2022-10-03T07:52:57.621Z,9.32
2022-10-03T07:55:48.217Z,8.20
2022-10-03T07:58:42.594Z,9.02
2022-10-03T08:01:23.785Z,7.95
2022-10-03T08:04:00.291Z,8.30
2022-10-03T08:06:38.845Z,8.75
2022-10-03T08:09:24.891Z,8.95
2022-10-03T08:12:16.234Z,7.35
2022-10-03T08:14:45.887Z,7.40
2022-10-03T08:17:58.175Z,8.70
2022-10-03T08:20:37.503Z,7.53
2022-10-03T08:23:34.987Z,7.90
2022-10-03T08:26:31.785Z,7.28
2022-10-03T08:29:25.459Z,6.65
2022-10-03T08:32:23.178Z,6.55
2022-10-03T08:35:11.311Z,5.63
2022-10-03T08:38:04.438Z,6.47
2022-10-03T08:41:01.947Z,6.90
2022-10-03T08:43:43.915Z,5.45
2022-10-03T08:46:47.859Z,6.05
2022-10-03T08:49:15.820Z,5.63
2022-10-03T08:51:43.178Z,5.28
2022-10-03T08:54:22.899Z,4.95
2022-10-03T08:57:09.656Z,4.45
2022-10-03T09:00:01.686Z,3.90
2022-10-03T09:03:02.045Z,3.10
2022-10-03T09:06:14.189Z,2.97
2022-10-03T09:09:35.663Z,2.75
2022-10-03T09:12:09.137Z,3.33
2022-10-03T09:14:44.971Z,4.85
2022-10-03T09:18:05.571Z,3.67
2022-10-03T09:21:17.980Z,2.63
2022-10-03T09:23:51.479Z,2.28
2022-10-03T09:26:40.080Z,2.40
2022-10-03T09:29:44.593Z,3.80
2022-10-03T09:32:47.992Z,2.50
2022-10-03T09:35:39.064Z,2.60
2022-10-03T09:38:33.681Z,4.35
2022-10-03T09:41:08.516Z,2.50
2022-10-03T09:44:05.398Z,3.45
2022-10-03T09:46:46.578Z,3.35
2022-10-03T09:49:38.765Z,3.38
2022-10-03T09:52:15.052Z,3.38
2022-10-03T09:54:50.401Z,3.05
2022-10-03T09:57:42.399Z,2.97
2022-10-03T10:00:24.560Z,3.40
2022-10-03T10:03:18.709Z,2.75
2022-10-03T10:06:04.494Z,3.65
2022-10-03T10:09:12.802Z,3.70
2022-10-03T10:12:16.388Z,3.90
2022-10-03T10:15:06.688Z,2.03
2022-10-03T10:17:55.337Z,3.05
2022-10-03T10:20:40.022Z,3.13
2022-10-03T10:23:33.593Z,3.08
2022-10-03T10:26:43.375Z,3.25
2022-10-03T10:29:35.043Z,2.75
2022-10-03T10:32:21.674Z,2.83
2022-10-03T10:35:19.575Z,2.85
2022-10-03T10:38:37.683Z,2.65
2022-10-03T10:41:35.051Z,3.05
2022-10-03T10:44:37.155Z,2.90
2022-10-03T10:47:29.082Z,2.50
2022-10-03T10:50:47.093Z,3.63
2022-10-03T10:53:51.266Z,2.88
2022-10-03T10:56:27.412Z,2.72
2022-10-03T10:59:22.046Z,2.35
2022-10-03T11:02:25.877Z,3.50
2022-10-03T11:05:30.134Z,3.17
2022-10-03T11:08:25.611Z,3.10
2022-10-03T11:11:49.603Z,3.22
2022-10-03T11:14:32.714Z,3.35
2022-10-03T11:17:37.790Z,3.38
2022-10-03T11:20:28.712Z,2.83
2022-10-03T11:23:19.639Z,3.25
2022-10-03T11:25:58.238Z,3.05
2022-10-03T11:29:02.391Z,3.25
2022-10-03T11:32:09.551Z,3.35
2022-10-03T11:34:54.640Z,3.03
2022-10-03T11:37:43.052Z,3.15
2022-10-03T11:40:39.412Z,3.25
2022-10-03T11:43:36.995Z,2.78
2022-10-03T11:46:15.956Z,2.80
2022-10-03T11:48:52.776Z,3.53
2022-10-03T11:51:24.780Z,3.63
2022-10-03T11:54:19.207Z,3.70
2022-10-03T11:56:48.006Z,3.83
2022-10-03T11:59:37.837Z,3.20
2022-10-03T12:02:13.916Z,3.22
2022-10-03T12:04:55.779Z,3.28
2022-10-03T12:08:03.243Z,3.53
2022-10-03T12:10:39.382Z,3.70
2022-10-03T12:13:29.224Z,3.63
2022-10-03T12:16:02.044Z,2.90
2022-10-03T12:18:42.518Z,3.17
2022-10-03T12:21:32.646Z,3.20
2022-10-03T12:24:19.958Z,2.63
2022-10-03T12:27:26.482Z,3.15
2022-10-03T12:29:59.134Z,2.83
2022-10-03T12:32:49.821Z,3.03
2022-10-03T12:35:22.818Z,3.28
2022-10-03T12:40:44.317Z,2.20
2022-10-03T12:43:37.478Z,2.38
2022-10-03T12:46:14.765Z,2.72
2022-10-03T12:48:46.832Z,2.83
2022-10-03T12:51:41.049Z,2.65
2022-10-03T12:54:28.369Z,3.35
2022-10-03T12:57:39.750Z,3.22
2022-10-03T13:00:57.649Z,2.45
2022-10-03T13:03:41.974Z,2.72
2022-10-03T13:07:02.249Z,3.10
2022-10-03T13:09:49.901Z,2.10
2022-10-03T13:12:41.715Z,2.95
2022-10-03T13:15:45.028Z,2.30
2022-10-03T13:18:30.656Z,2.22
2022-10-03T13:21:33.416Z,2.08
2022-10-03T13:24:09.453Z,2.78
2022-10-03T13:26:53.983Z,2.53
2022-10-03T13:29:55.438Z,2.85
2022-10-03T13:32:30.402Z,2.20
2022-10-03T13:34:59.518Z,2.22
2022-10-03T13:37:57.393Z,3.38
2022-10-03T13:40:26.037Z,2.95
2022-10-03T13:42:53.829Z,2.55
2022-10-03T13:45:28.326Z,2.15
2022-10-03T13:48:14.405Z,2.22
2022-10-03T13:51:05.652Z,2.58
2022-10-03T13:53:58.856Z,1.70
2022-10-03T13:56:55.847Z,2.25
2022-10-03T13:59:29.711Z,1.77
2022-10-03T14:02:02.440Z,2.65
2022-10-03T14:04:46.829Z,2.08
2022-10-03T14:07:42.045Z,2.05
2022-10-03T14:10:26.682Z,2.70
2022-10-03T14:13:02.451Z,2.20
2022-10-03T14:15:29.801Z,1.63
2022-10-03T14:18:19.740Z,1.95
2022-10-03T14:21:20.195Z,2.67
2022-10-03T14:24:03.611Z,1.88
2022-10-03T14:26:55.410Z,3.75
2022-10-03T14:29:43.934Z,2.00
2022-10-03T14:32:46.369Z,1.85
2022-10-03T14:35:18.095Z,2.08
2022-10-03T14:38:06.968Z,2.05
2022-10-03T14:40:51.320Z,1.73
2022-10-03T14:43:21.035Z,1.58
2022-10-03T14:45:54.264Z,1.77
2022-10-03T14:48:27.769Z,1.95
2022-10-03T14:51:27.267Z,2.13
2022-10-03T14:54:03.228Z,2.03
2022-10-03T14:56:34.042Z,2.05
2022-10-03T14:59:03.767Z,3.90
2022-10-03T15:01:30.986Z,2.28
2022-10-03T15:04:10.185Z,2.10
2022-10-03T15:06:46.042Z,2.63
2022-10-03T15:09:19.403Z,2.38
2022-10-03T15:11:50.714Z,2.00
2022-10-03T15:14:17.749Z,2.20
2022-10-03T15:17:06.966Z,1.92
2022-10-03T15:19:44.422Z,2.15
2022-10-03T15:22:36.469Z,1.80
2022-10-03T15:25:22.580Z,1.55
2022-10-03T15:28:01.888Z,2.60
2022-10-03T15:30:32.575Z,2.20
2022-10-03T15:33:19.659Z,2.80
2022-10-03T15:35:50.881Z,2.20
2022-10-03T15:38:27.449Z,4.40
2022-10-03T15:41:13.331Z,4.20
2022-10-03T15:43:57.137Z,2.28
2022-10-03T15:46:39.705Z,2.03
2022-10-03T15:49:08.204Z,2.47
2022-10-03T15:51:38.596Z,5.15
2022-10-03T15:54:09.979Z,3.13
2022-10-03T15:56:48.270Z,3.60
2022-10-03T15:59:32.230Z,4.85
2022-10-03T16:02:02.757Z,3.20
2022-10-03T16:04:34.940Z,3.25
2022-10-03T16:07:09.541Z,2.93
2022-10-03T16:09:51.161Z,2.70
2022-10-03T16:12:38.120Z,2.05
2022-10-03T16:15:15.080Z,3.90
2022-10-03T16:17:45.369Z,4.20
2022-10-03T16:20:32.151Z,5.32
2022-10-03T16:23:17.044Z,4.82
2022-10-03T16:26:02.396Z,4.10
2022-10-03T16:28:39.516Z,2.92
2022-10-03T16:31:13.025Z,3.35
2022-10-03T16:33:53.533Z,3.40
2022-10-03T16:36:25.243Z,4.03
2022-10-03T16:38:57.124Z,3.28
2022-10-03T16:41:32.512Z,3.65
2022-10-03T16:44:05.114Z,8.27
2022-10-03T16:46:38.217Z,44.88
2022-10-03T16:52:15.561Z,3.35
2022-10-03T16:54:43.991Z,2.78
2022-10-03T16:57:26.616Z,2.63
2022-10-03T16:59:54.670Z,2.50
2022-10-03T17:02:31.865Z,3.03
2022-10-03T17:05:11.138Z,2.65
2022-10-03T17:08:06.687Z,3.42
2022-10-03T17:10:46.928Z,3.60
2022-10-03T17:13:21.242Z,3.80
2022-10-03T17:15:53.081Z,6.18
2022-10-03T17:18:28.262Z,6.20
2022-10-03T17:21:07.619Z,6.05
2022-10-03T17:23:38.903Z,5.07
2022-10-03T17:26:29.608Z,5.13
2022-10-03T17:29:25.692Z,7.18
2022-10-03T17:32:00.592Z,10.27
2022-10-03T17:34:34.407Z,8.93
2022-10-03T17:37:33.687Z,7.20
2022-10-03T17:40:24.906Z,5.20
2022-10-03T17:42:56.002Z,3.03
2022-10-03T17:45:40.704Z,2.40
2022-10-03T17:48:20.984Z,2.30
2022-10-03T17:51:05.317Z,2.83
2022-10-03T17:53:35.278Z,3.38
2022-10-03T17:56:10.509Z,3.85
2022-10-03T17:58:40.883Z,4.63
2022-10-03T18:01:11.096Z,6.35
2022-10-03T18:03:39.409Z,5.25
2022-10-03T18:06:42.831Z,4.18
2022-10-03T18:09:23.208Z,3.75
2022-10-03T18:11:50.772Z,3.60
2022-10-03T18:14:38.370Z,3.85
2022-10-03T18:17:17.287Z,2.80
2022-10-03T18:20:04.090Z,3.42
2022-10-03T18:22:40.752Z,12.63
2022-10-03T18:26:18.555Z,16.42
2022-10-03T18:28:45.784Z,4.75
2022-10-03T18:31:20.194Z,5.18
2022-10-03T18:34:01.960Z,4.28
2022-10-03T18:36:38.205Z,3.63
2022-10-03T18:39:25.413Z,4.75
2022-10-03T18:41:55.283Z,3.50
2022-10-03T18:48:03.757Z,14.18
2022-10-03T18:54:25.973Z,4.25
2022-10-03T18:57:05.325Z,4.03
2022-10-03T19:00:05.811Z,5.18
2022-10-03T19:02:44.129Z,6.10
2022-10-03T19:05:31.796Z,5.30
2022-10-03T19:08:18.850Z,5.53
2022-10-03T19:10:47.511Z,11.07
2022-10-03T19:13:53.907Z,11.57
2022-10-03T19:16:24.590Z,6.47
2022-10-03T19:19:05.919Z,8.20
2022-10-03T19:21:41.365Z,8.57
2022-10-03T19:24:27.049Z,7.32
2022-10-03T19:27:10.943Z,5.25
2022-10-03T19:29:56.096Z,6.97
2022-10-03T19:32:44.626Z,6.40
2022-10-03T19:35:16.600Z,6.45
2022-10-03T19:37:47.327Z,5.75
2022-10-03T19:40:30.461Z,6.47
2022-10-03T19:43:11.558Z,4.72
2022-10-03T19:45:40.551Z,4.72
2022-10-03T19:48:11.174Z,5.32
2022-10-03T19:50:38.556Z,5.30
2022-10-03T19:53:16.101Z,5.90
2022-10-03T19:55:43.852Z,6.45
2022-10-03T19:58:23.197Z,13.30
2022-10-03T20:00:54.827Z,5.70
2022-10-03T20:03:28.449Z,7.18
2022-10-03T20:06:20.957Z,7.45
2022-10-03T20:09:05.880Z,5.28
2022-10-03T20:11:32.630Z,6.80
2022-10-03T20:14:03.518Z,7.35
2022-10-03T20:16:35.856Z,6.93
2022-10-03T20:19:29.230Z,6.93
2022-10-03T20:21:59.114Z,6.72
2022-10-03T20:24:34.315Z,5.75
2022-10-03T20:27:29.239Z,12.85
2022-10-03T20:30:28.174Z,21.55
2022-10-03T20:32:56.910Z,22.23
2022-10-03T20:35:45.244Z,11.98
2022-10-03T20:38:32.936Z,10.18
2022-10-03T20:41:16.034Z,6.18
2022-10-03T20:43:55.965Z,4.63
2022-10-03T20:46:40.969Z,5.50
2022-10-03T20:49:34.056Z,6.32
2022-10-03T20:52:08.259Z,9.55
2022-10-03T20:54:53.329Z,8.00
2022-10-03T20:57:32.390Z,8.75
2022-10-03T21:00:21.505Z,10.55
2022-10-03T21:03:01.851Z,8.57
2022-10-03T21:05:52.654Z,6.88
2022-10-03T21:08:33.647Z,9.50
2022-10-03T21:11:06.912Z,8.70
2022-10-03T21:13:42.148Z,6.82
2022-10-03T21:16:33.212Z,6.22
2022-10-03T21:19:13.740Z,6.13
2022-10-03T21:21:43.879Z,5.35
2022-10-03T21:24:52.841Z,5.15
2022-10-03T21:31:30.897Z,5.13
2022-10-03T21:37:37.953Z,5.18
2022-10-03T21:40:50.752Z,5.60
2022-10-03T21:43:46.467Z,5.70
2022-10-03T21:49:51.288Z,6.10
2022-10-03T21:59:52.003Z,5.20
2022-10-03T22:08:58.289Z,5.60
2022-10-03T22:15:10.230Z,5.20
2022-10-03T22:18:16.905Z,4.90
2022-10-03T22:23:57.444Z,5.47
2022-10-03T22:27:12.381Z,4.88
2022-10-03T22:30:09.664Z,5.78
2022-10-03T22:33:10.745Z,6.07
2022-10-03T22:35:50.699Z,5.47
2022-10-03T22:38:45.593Z,6.38
2022-10-03T22:41:19.429Z,6.03
2022-10-03T22:47:34.705Z,5.28
2022-10-03T22:54:03.066Z,6.15
2022-10-03T22:57:09.704Z,5.90
2022-10-03T23:00:35.816Z,6.05
2022-10-03T23:10:45.038Z,5.70
2022-10-03T23:13:27.695Z,5.00
2022-10-03T23:16:17.763Z,5.78
2022-10-03T23:19:16.609Z,5.07
2022-10-03T23:25:19.948Z,5.47
2022-10-03T23:27:52.880Z,5.00
2022-10-03T23:33:42.178Z,5.15
2022-10-03T23:36:49.948Z,7.28
2022-10-03T23:40:34.691Z,5.30
2022-10-03T23:43:34.607Z,6.45
2022-10-03T23:46:39.644Z,5.78
2022-10-03T23:52:16.168Z,5.90
2022-10-03T23:57:30.605Z,5.57
